Bombinhas, Brazil
Current Conditions -  °F | °C
As of 4:00 PM on Monday 26 Jan 2015 (Local Time) from SBNF Reporting Station
Few Clouds Few Clouds  
Wind Chill: 88°   Ceiling: Unl
Heat Index: 100°   Visibility: 6mi
Dew Point: 77°   Wind: 17mph
Humidity: 70%   Direction: 50°NE
Pressure: 29.8"   Gusts: NA
Location:  27.13°S, 48.53°W
Report Text: SBNF 261800Z 05015KT 9999 FEW035 31/25 Q1009
Loading
Personal Weather Stations






























Interactive Weather Map New forecast layout! Learn more

10-Day Weather Forecast

Advertisements
Track Severe Weather on mobile